sensor_id;sensor_type;location;lat;lon;timestamp;P1;durP1;ratioP1;P2;durP2;ratioP2
16757;SDS011;8497;51.346;12.396;2024-03-23T00:51:10;26.33;;;16.47;;
16757;SDS011;8497;51.346;12.396;2024-03-23T00:53:38;24.00;;;14.77;;
16757;SDS011;8497;51.346;12.396;2024-03-23T00:56:05;25.30;;;16.37;;
16757;SDS011;8497;51.346;12.396;2024-03-23T00:58:33;22.30;;;14.87;;
16757;SDS011;8497;51.346;12.396;2024-03-23T01:01:00;20.70;;;14.40;;
16757;SDS011;8497;51.346;12.396;2024-03-23T01:03:30;23.40;;;15.67;;
16757;SDS011;8497;51.346;12.396;2024-03-23T01:05:58;24.33;;;16.00;;
16757;SDS011;8497;51.346;12.396;2024-03-23T01:08:26;26.10;;;15.37;;
16757;SDS011;8497;51.346;12.396;2024-03-23T01:10:56;25.13;;;15.13;;
16757;SDS011;8497;51.346;12.396;2024-03-23T01:13:24;23.57;;;14.90;;
16757;SDS011;8497;51.346;12.396;2024-03-23T01:15:51;23.00;;;14.73;;
16757;SDS011;8497;51.346;12.396;2024-03-23T01:18:26;29.00;;;15.40;;
16757;SDS011;8497;51.346;12.396;2024-03-23T01:20:54;23.20;;;15.27;;
16757;SDS011;8497;51.346;12.396;2024-03-23T01:23:24;26.17;;;15.53;;
16757;SDS011;8497;51.346;12.396;2024-03-23T01:25:51;24.93;;;15.27;;
16757;SDS011;8497;51.346;12.396;2024-03-23T01:28:19;21.90;;;14.67;;
16757;SDS011;8497;51.346;12.396;2024-03-23T01:30:46;19.77;;;12.77;;
16757;SDS011;8497;51.346;12.396;2024-03-23T01:33:14;18.87;;;12.03;;
16757;SDS011;8497;51.346;12.396;2024-03-23T01:35:41;18.30;;;12.03;;
16757;SDS011;8497;51.346;12.396;2024-03-23T01:38:10;15.60;;;10.30;;
16757;SDS011;8497;51.346;12.396;2024-03-23T01:40:36;15.10;;;10.30;;
16757;SDS011;8497;51.346;12.396;2024-03-23T01:43:04;16.20;;;10.53;;
16757;SDS011;8497;51.346;12.396;2024-03-23T01:45:33;16.10;;;9.47;;
16757;SDS011;8497;51.346;12.396;2024-03-23T01:48:01;14.53;;;9.83;;
16757;SDS011;8497;51.346;12.396;2024-03-23T01:50:29;13.53;;;8.50;;
16757;SDS011;8497;51.346;12.396;2024-03-23T01:52:59;14.73;;;8.50;;
16757;SDS011;8497;51.346;12.396;2024-03-23T01:55:29;13.30;;;7.80;;
16757;SDS011;8497;51.346;12.396;2024-03-23T01:57:59;14.97;;;9.67;;
16757;SDS011;8497;51.346;12.396;2024-03-23T02:00:26;16.30;;;10.30;;
16757;SDS011;8497;51.346;12.396;2024-03-23T02:03:13;15.60;;;10.30;;
16757;SDS011;8497;51.346;12.396;2024-03-23T02:05:48;21.13;;;10.60;;
16757;SDS011;8497;51.346;12.396;2024-03-23T02:08:17;23.10;;;11.03;;
16757;SDS011;8497;51.346;12.396;2024-03-23T02:10:46;17.13;;;9.67;;
16757;SDS011;8497;51.346;12.396;2024-03-23T02:13:14;16.97;;;10.10;;
16757;SDS011;8497;51.346;12.396;2024-03-23T02:15:41;17.33;;;8.60;;
16757;SDS011;8497;51.346;12.396;2024-03-23T02:18:10;12.63;;;7.93;;
16757;SDS011;8497;51.346;12.396;2024-03-23T02:20:37;13.27;;;7.37;;
16757;SDS011;8497;51.346;12.396;2024-03-23T02:23:11;13.10;;;7.07;;
16757;SDS011;8497;51.346;12.396;2024-03-23T02:25:39;11.73;;;6.57;;
16757;SDS011;8497;51.346;12.396;2024-03-23T02:28:07;10.90;;;7.03;;
16757;SDS011;8497;51.346;12.396;2024-03-23T02:30:34;9.93;;;6.30;;
16757;SDS011;8497;51.346;12.396;2024-03-23T02:33:01;10.20;;;6.80;;
16757;SDS011;8497;51.346;12.396;2024-03-23T02:35:28;15.67;;;7.20;;
16757;SDS011;8497;51.346;12.396;2024-03-23T02:37:56;14.47;;;6.27;;
16757;SDS011;8497;51.346;12.396;2024-03-23T02:40:24;9.63;;;6.17;;
16757;SDS011;8497;51.346;12.396;2024-03-23T02:42:51;13.30;;;6.90;;
16757;SDS011;8497;51.346;12.396;2024-03-23T02:45:18;10.47;;;6.37;;
16757;SDS011;8497;51.346;12.396;2024-03-23T02:47:46;12.70;;;7.00;;
16757;SDS011;8497;51.346;12.396;2024-03-23T02:50:12;13.20;;;7.27;;
16757;SDS011;8497;51.346;12.396;2024-03-23T02:52:40;11.37;;;7.17;;
16757;SDS011;8497;51.346;12.396;2024-03-23T02:55:07;11.10;;;6.30;;
16757;SDS011;8497;51.346;12.396;2024-03-23T02:57:36;15.67;;;7.77;;
16757;SDS011;8497;51.346;12.396;2024-03-23T03:00:05;11.57;;;6.97;;
16757;SDS011;8497;51.346;12.396;2024-03-23T03:02:36;12.27;;;7.03;;
16757;SDS011;8497;51.346;12.396;2024-03-23T03:05:03;13.23;;;6.90;;
16757;SDS011;8497;51.346;12.396;2024-03-23T03:07:32;13.40;;;7.07;;
16757;SDS011;8497;51.346;12.396;2024-03-23T03:09:58;11.30;;;5.90;;
16757;SDS011;8497;51.346;12.396;2024-03-23T03:12:26;10.07;;;6.07;;
16757;SDS011;8497;51.346;12.396;2024-03-23T03:14:54;9.97;;;5.43;;
16757;SDS011;8497;51.346;12.396;2024-03-23T03:17:24;9.13;;;6.40;;
16757;SDS011;8497;51.346;12.396;2024-03-23T03:19:50;12.23;;;6.40;;
16757;SDS011;8497;51.346;12.396;2024-03-23T03:22:21;11.93;;;6.00;;
16757;SDS011;8497;51.346;12.396;2024-03-23T03:24:48;10.30;;;5.10;;
16757;SDS011;8497;51.346;12.396;2024-03-23T03:27:15;9.13;;;5.10;;
16757;SDS011;8497;51.346;12.396;2024-03-23T03:29:42;7.53;;;4.60;;
16757;SDS011;8497;51.346;12.396;2024-03-23T03:32:11;6.03;;;3.97;;
16757;SDS011;8497;51.346;12.396;2024-03-23T03:34:38;7.57;;;4.27;;
16757;SDS011;8497;51.346;12.396;2024-03-23T03:37:05;7.00;;;4.03;;
16757;SDS011;8497;51.346;12.396;2024-03-23T03:39:32;11.57;;;4.60;;
16757;SDS011;8497;51.346;12.396;2024-03-23T03:42:00;5.73;;;3.50;;
16757;SDS011;8497;51.346;12.396;2024-03-23T03:44:32;8.10;;;3.87;;
16757;SDS011;8497;51.346;12.396;2024-03-23T03:46:59;5.13;;;3.80;;
16757;SDS011;8497;51.346;12.396;2024-03-23T03:49:28;8.23;;;4.00;;
16757;SDS011;8497;51.346;12.396;2024-03-23T03:51:56;5.90;;;4.03;;
16757;SDS011;8497;51.346;12.396;2024-03-23T03:54:23;5.33;;;3.93;;
16757;SDS011;8497;51.346;12.396;2024-03-23T03:56:52;8.20;;;4.00;;
16757;SDS011;8497;51.346;12.396;2024-03-23T03:59:20;6.40;;;3.37;;
16757;SDS011;8497;51.346;12.396;2024-03-23T04:01:48;6.30;;;3.63;;
16757;SDS011;8497;51.346;12.396;2024-03-23T04:04:14;10.77;;;4.50;;
16757;SDS011;8497;51.346;12.396;2024-03-23T04:06:46;7.37;;;3.47;;
16757;SDS011;8497;51.346;12.396;2024-03-23T04:09:13;7.03;;;3.90;;
16757;SDS011;8497;51.346;12.396;2024-03-23T04:11:40;6.73;;;3.33;;
16757;SDS011;8497;51.346;12.396;2024-03-23T04:14:09;6.37;;;3.60;;
16757;SDS011;8497;51.346;12.396;2024-03-23T04:16:37;6.03;;;3.80;;
16757;SDS011;8497;51.346;12.396;2024-03-23T04:19:03;6.33;;;3.20;;
16757;SDS011;8497;51.346;12.396;2024-03-23T04:21:33;8.20;;;3.90;;
16757;SDS011;8497;51.346;12.396;2024-03-23T04:24:05;7.57;;;3.97;;
16757;SDS011;8497;51.346;12.396;2024-03-23T04:26:40;5.73;;;3.30;;
16757;SDS011;8497;51.346;12.396;2024-03-23T04:29:07;6.77;;;3.93;;
16757;SDS011;8497;51.346;12.396;2024-03-23T04:31:37;5.20;;;3.30;;
16757;SDS011;8497;51.346;12.396;2024-03-23T04:34:04;5.03;;;3.53;;
16757;SDS011;8497;51.346;12.396;2024-03-23T04:36:32;7.47;;;3.50;;
16757;SDS011;8497;51.346;12.396;2024-03-23T04:38:58;8.50;;;3.37;;
16757;SDS011;8497;51.346;12.396;2024-03-23T04:41:28;7.50;;;4.17;;
16757;SDS011;8497;51.346;12.396;2024-03-23T04:43:56;8.13;;;4.20;;
16757;SDS011;8497;51.346;12.396;2024-03-23T04:46:24;7.87;;;3.93;;
16757;SDS011;8497;51.346;12.396;2024-03-23T04:48:51;10.07;;;3.30;;
16757;SDS011;8497;51.346;12.396;2024-03-23T04:51:22;7.63;;;3.67;;
16757;SDS011;8497;51.346;12.396;2024-03-23T04:53:50;6.57;;;3.67;;
16757;SDS011;8497;51.346;12.396;2024-03-23T04:56:18;5.33;;;4.10;;
16757;SDS011;8497;51.346;12.396;2024-03-23T04:58:47;7.80;;;4.00;;
16757;SDS011;8497;51.346;12.396;2024-03-23T05:01:13;6.40;;;4.00;;
16757;SDS011;8497;51.346;12.396;2024-03-23T05:03:42;8.03;;;4.20;;
16757;SDS011;8497;51.346;12.396;2024-03-23T05:06:08;7.93;;;4.30;;
16757;SDS011;8497;51.346;12.396;2024-03-23T05:08:44;9.73;;;4.40;;
16757;SDS011;8497;51.346;12.396;2024-03-23T05:11:11;8.77;;;4.53;;
16757;SDS011;8497;51.346;12.396;2024-03-23T05:13:39;5.00;;;4.03;;
16757;SDS011;8497;51.346;12.396;2024-03-23T05:16:07;12.90;;;4.40;;
16757;SDS011;8497;51.346;12.396;2024-03-23T05:18:35;8.47;;;4.03;;
16757;SDS011;8497;51.346;12.396;2024-03-23T05:21:01;9.50;;;4.27;;
16757;SDS011;8497;51.346;12.396;2024-03-23T05:23:31;8.67;;;4.13;;
16757;SDS011;8497;51.346;12.396;2024-03-23T05:25:58;6.70;;;4.17;;
16757;SDS011;8497;51.346;12.396;2024-03-23T05:28:26;6.20;;;3.97;;
16757;SDS011;8497;51.346;12.396;2024-03-23T05:30:52;10.20;;;4.73;;
16757;SDS011;8497;51.346;12.396;2024-03-23T05:33:22;8.47;;;4.50;;
16757;SDS011;8497;51.346;12.396;2024-03-23T05:35:55;6.77;;;4.53;;
16757;SDS011;8497;51.346;12.396;2024-03-23T05:38:24;7.47;;;4.50;;
16757;SDS011;8497;51.346;12.396;2024-03-23T05:40:54;6.73;;;4.20;;
16757;SDS011;8497;51.346;12.396;2024-03-23T05:43:21;9.77;;;4.67;;
16757;SDS011;8497;51.346;12.396;2024-03-23T05:45:53;7.53;;;4.00;;
16757;SDS011;8497;51.346;12.396;2024-03-23T05:48:20;7.00;;;4.00;;
16757;SDS011;8497;51.346;12.396;2024-03-23T05:50:51;5.73;;;3.73;;
16757;SDS011;8497;51.346;12.396;2024-03-23T05:53:18;8.93;;;5.00;;
16757;SDS011;8497;51.346;12.396;2024-03-23T05:55:46;7.23;;;4.57;;
16757;SDS011;8497;51.346;12.396;2024-03-23T05:58:14;11.00;;;4.50;;
16757;SDS011;8497;51.346;12.396;2024-03-23T06:00:43;7.13;;;4.57;;
16757;SDS011;8497;51.346;12.396;2024-03-23T06:03:10;7.87;;;4.73;;
16757;SDS011;8497;51.346;12.396;2024-03-23T06:05:39;6.20;;;4.53;;
16757;SDS011;8497;51.346;12.396;2024-03-23T06:08:06;8.90;;;4.70;;
16757;SDS011;8497;51.346;12.396;2024-03-23T06:10:35;8.27;;;5.30;;
16757;SDS011;8497;51.346;12.396;2024-03-23T06:13:01;7.40;;;4.77;;
16757;SDS011;8497;51.346;12.396;2024-03-23T06:15:29;11.40;;;4.53;;
16757;SDS011;8497;51.346;12.396;2024-03-23T06:17:57;8.70;;;4.50;;
16757;SDS011;8497;51.346;12.396;2024-03-23T06:20:24;6.87;;;4.13;;
16757;SDS011;8497;51.346;12.396;2024-03-23T06:22:53;7.90;;;4.63;;
16757;SDS011;8497;51.346;12.396;2024-03-23T06:25:20;10.03;;;5.37;;
16757;SDS011;8497;51.346;12.396;2024-03-23T06:27:47;6.30;;;4.60;;
16757;SDS011;8497;51.346;12.396;2024-03-23T06:30:14;9.90;;;5.07;;
16757;SDS011;8497;51.346;12.396;2024-03-23T06:32:41;9.37;;;5.10;;
16757;SDS011;8497;51.346;12.396;2024-03-23T06:35:11;10.87;;;4.77;;
16757;SDS011;8497;51.346;12.396;2024-03-23T06:37:37;12.43;;;5.00;;
16757;SDS011;8497;51.346;12.396;2024-03-23T06:40:08;8.53;;;5.17;;
16757;SDS011;8497;51.346;12.396;2024-03-23T06:42:35;11.57;;;5.37;;
16757;SDS011;8497;51.346;12.396;2024-03-23T06:45:04;7.80;;;5.10;;
16757;SDS011;8497;51.346;12.396;2024-03-23T06:47:31;9.67;;;5.30;;
16757;SDS011;8497;51.346;12.396;2024-03-23T06:50:00;10.93;;;5.40;;
16757;SDS011;8497;51.346;12.396;2024-03-23T06:52:28;9.83;;;5.77;;
16757;SDS011;8497;51.346;12.396;2024-03-23T06:54:58;12.43;;;5.40;;
16757;SDS011;8497;51.346;12.396;2024-03-23T06:57:26;8.53;;;5.03;;
16757;SDS011;8497;51.346;12.396;2024-03-23T06:59:55;13.30;;;5.77;;
16757;SDS011;8497;51.346;12.396;2024-03-23T07:02:25;11.77;;;5.77;;
16757;SDS011;8497;51.346;12.396;2024-03-23T07:04:52;13.67;;;6.07;;
16757;SDS011;8497;51.346;12.396;2024-03-23T07:07:19;12.80;;;5.50;;
16757;SDS011;8497;51.346;12.396;2024-03-23T07:09:46;9.80;;;5.57;;
16757;SDS011;8497;51.346;12.396;2024-03-23T07:12:13;12.00;;;6.03;;
16757;SDS011;8497;51.346;12.396;2024-03-23T07:14:42;9.80;;;5.90;;
16757;SDS011;8497;51.346;12.396;2024-03-23T07:17:10;8.63;;;5.50;;
16757;SDS011;8497;51.346;12.396;2024-03-23T07:19:38;8.23;;;5.30;;
16757;SDS011;8497;51.346;12.396;2024-03-23T07:22:04;13.97;;;4.90;;
16757;SDS011;8497;51.346;12.396;2024-03-23T07:24:32;12.20;;;5.63;;
16757;SDS011;8497;51.346;12.396;2024-03-23T07:26:58;11.00;;;5.30;;
16757;SDS011;8497;51.346;12.396;2024-03-23T07:29:27;7.57;;;4.67;;
16757;SDS011;8497;51.346;12.396;2024-03-23T07:31:57;8.70;;;4.83;;
16757;SDS011;8497;51.346;12.396;2024-03-23T07:34:26;7.03;;;4.50;;
16757;SDS011;8497;51.346;12.396;2024-03-23T07:36:52;7.97;;;5.37;;
16757;SDS011;8497;51.346;12.396;2024-03-23T07:39:22;5.90;;;3.20;;
16757;SDS011;8497;51.346;12.396;2024-03-23T07:41:48;6.80;;;3.70;;
16757;SDS011;8497;51.346;12.396;2024-03-23T07:44:16;6.20;;;3.07;;
16757;SDS011;8497;51.346;12.396;2024-03-23T07:46:42;5.50;;;2.90;;
16757;SDS011;8497;51.346;12.396;2024-03-23T07:49:12;4.40;;;2.57;;
16757;SDS011;8497;51.346;12.396;2024-03-23T07:51:41;5.43;;;2.37;;
16757;SDS011;8497;51.346;12.396;2024-03-23T07:54:08;4.53;;;3.30;;
16757;SDS011;8497;51.346;12.396;2024-03-23T07:56:35;9.27;;;4.30;;
16757;SDS011;8497;51.346;12.396;2024-03-23T07:59:02;3.83;;;2.00;;
16757;SDS011;8497;51.346;12.396;2024-03-23T08:01:29;2.40;;;1.40;;
16757;SDS011;8497;51.346;12.396;2024-03-23T08:03:56;4.00;;;1.73;;
16757;SDS011;8497;51.346;12.396;2024-03-23T08:06:24;2.40;;;1.40;;
16757;SDS011;8497;51.346;12.396;2024-03-23T08:08:52;1.40;;;1.23;;
16757;SDS011;8497;51.346;12.396;2024-03-23T08:11:25;3.30;;;1.50;;
16757;SDS011;8497;51.346;12.396;2024-03-23T08:13:53;3.73;;;1.30;;
16757;SDS011;8497;51.346;12.396;2024-03-23T08:16:20;2.30;;;1.30;;
16757;SDS011;8497;51.346;12.396;2024-03-23T08:18:47;1.10;;;1.10;;
16757;SDS011;8497;51.346;12.396;2024-03-23T08:21:17;1.00;;;0.90;;
16757;SDS011;8497;51.346;12.396;2024-03-23T08:23:47;2.30;;;1.30;;
16757;SDS011;8497;51.346;12.396;2024-03-23T08:26:14;2.50;;;1.20;;
16757;SDS011;8497;51.346;12.396;2024-03-23T08:28:43;3.13;;;1.40;;
16757;SDS011;8497;51.346;12.396;2024-03-23T08:31:10;2.30;;;1.47;;
16757;SDS011;8497;51.346;12.396;2024-03-23T08:33:40;2.63;;;1.40;;
16757;SDS011;8497;51.346;12.396;2024-03-23T08:36:09;3.23;;;1.40;;
16757;SDS011;8497;51.346;12.396;2024-03-23T08:38:39;2.67;;;1.00;;
16757;SDS011;8497;51.346;12.396;2024-03-23T08:41:08;1.33;;;1.20;;
16757;SDS011;8497;51.346;12.396;2024-03-23T08:43:38;1.07;;;1.00;;
16757;SDS011;8497;51.346;12.396;2024-03-23T08:46:08;3.00;;;1.10;;
16757;SDS011;8497;51.346;12.396;2024-03-23T08:48:38;1.47;;;1.13;;
16757;SDS011;8497;51.346;12.396;2024-03-23T08:51:09;1.37;;;1.20;;
16757;SDS011;8497;51.346;12.396;2024-03-23T08:53:38;1.60;;;1.30;;
16757;SDS011;8497;51.346;12.396;2024-03-23T08:56:06;1.83;;;1.27;;
16757;SDS011;8497;51.346;12.396;2024-03-23T08:58:36;1.00;;;1.00;;
16757;SDS011;8497;51.346;12.396;2024-03-23T09:01:04;7.00;;;1.30;;
16757;SDS011;8497;51.346;12.396;2024-03-23T09:03:33;1.60;;;1.40;;
16757;SDS011;8497;51.346;12.396;2024-03-23T09:06:00;2.27;;;1.30;;
16757;SDS011;8497;51.346;12.396;2024-03-23T09:08:34;1.93;;;1.37;;
16757;SDS011;8497;51.346;12.396;2024-03-23T09:11:03;3.73;;;1.43;;
16757;SDS011;8497;51.346;12.396;2024-03-23T09:13:34;2.83;;;1.70;;
16757;SDS011;8497;51.346;12.396;2024-03-23T09:16:01;1.77;;;1.67;;
16757;SDS011;8497;51.346;12.396;2024-03-23T09:18:31;3.03;;;2.10;;
16757;SDS011;8497;51.346;12.396;2024-03-23T09:20:59;1.57;;;1.23;;
16757;SDS011;8497;51.346;12.396;2024-03-23T09:23:27;4.60;;;1.63;;
16757;SDS011;8497;51.346;12.396;2024-03-23T09:25:54;1.87;;;1.60;;
16757;SDS011;8497;51.346;12.396;2024-03-23T09:28:22;2.83;;;1.57;;
16757;SDS011;8497;51.346;12.396;2024-03-23T09:30:51;2.43;;;1.67;;
16757;SDS011;8497;51.346;12.396;2024-03-23T09:33:19;5.27;;;1.87;;
16757;SDS011;8497;51.346;12.396;2024-03-23T09:35:45;3.80;;;1.80;;
16757;SDS011;8497;51.346;12.396;2024-03-23T09:38:13;1.53;;;1.43;;
16757;SDS011;8497;51.346;12.396;2024-03-23T09:40:40;1.47;;;1.37;;
16757;SDS011;8497;51.346;12.396;2024-03-23T09:43:08;1.73;;;1.20;;
16757;SDS011;8497;51.346;12.396;2024-03-23T09:45:36;2.00;;;1.53;;
16757;SDS011;8497;51.346;12.396;2024-03-23T09:48:08;1.50;;;1.40;;
16757;SDS011;8497;51.346;12.396;2024-03-23T09:50:36;3.70;;;2.00;;
16757;SDS011;8497;51.346;12.396;2024-03-23T09:53:05;3.07;;;1.67;;
16757;SDS011;8497;51.346;12.396;2024-03-23T09:55:33;2.20;;;1.80;;
16757;SDS011;8497;51.346;12.396;2024-03-23T09:58:02;1.73;;;1.33;;
16757;SDS011;8497;51.346;12.396;2024-03-23T10:00:30;3.07;;;1.90;;
16757;SDS011;8497;51.346;12.396;2024-03-23T10:02:59;2.33;;;1.30;;
16757;SDS011;8497;51.346;12.396;2024-03-23T10:05:32;2.70;;;1.50;;
16757;SDS011;8497;51.346;12.396;2024-03-23T10:07:59;2.80;;;1.20;;
16757;SDS011;8497;51.346;12.396;2024-03-23T10:10:43;1.70;;;1.50;;
16757;SDS011;8497;51.346;12.396;2024-03-23T10:13:11;3.60;;;1.20;;
16757;SDS011;8497;51.346;12.396;2024-03-23T10:15:54;2.67;;;1.40;;
16757;SDS011;8497;51.346;12.396;2024-03-23T10:18:23;1.00;;;1.00;;
16757;SDS011;8497;51.346;12.396;2024-03-23T10:21:07;0.97;;;0.97;;
16757;SDS011;8497;51.346;12.396;2024-03-23T10:23:36;1.10;;;1.10;;
16757;SDS011;8497;51.346;12.396;2024-03-23T10:26:15;1.10;;;1.10;;
16757;SDS011;8497;51.346;12.396;2024-03-23T10:28:54;1.37;;;1.27;;
16757;SDS011;8497;51.346;12.396;2024-03-23T10:31:26;0.93;;;0.90;;
16757;SDS011;8497;51.346;12.396;2024-03-23T10:33:53;1.10;;;1.00;;
16757;SDS011;8497;51.346;12.396;2024-03-23T10:36:22;1.33;;;1.20;;
16757;SDS011;8497;51.346;12.396;2024-03-23T10:38:51;1.27;;;1.20;;
16757;SDS011;8497;51.346;12.396;2024-03-23T10:41:21;2.10;;;1.90;;
16757;SDS011;8497;51.346;12.396;2024-03-23T10:43:51;2.87;;;2.67;;
16757;SDS011;8497;51.346;12.396;2024-03-23T10:46:19;2.80;;;2.60;;
16757;SDS011;8497;51.346;12.396;2024-03-23T10:48:45;3.87;;;3.57;;
16757;SDS011;8497;51.346;12.396;2024-03-23T10:51:13;4.43;;;4.03;;
16757;SDS011;8497;51.346;12.396;2024-03-23T10:53:42;4.07;;;3.70;;
16757;SDS011;8497;51.346;12.396;2024-03-23T10:56:11;3.90;;;3.60;;
16757;SDS011;8497;51.346;12.396;2024-03-23T10:58:40;3.77;;;3.47;;
16757;SDS011;8497;51.346;12.396;2024-03-23T11:01:13;3.87;;;3.57;;
16757;SDS011;8497;51.346;12.396;2024-03-23T11:03:44;4.00;;;3.70;;
16757;SDS011;8497;51.346;12.396;2024-03-23T11:06:33;3.40;;;3.20;;
16757;SDS011;8497;51.346;12.396;2024-03-23T11:09:02;3.27;;;3.07;;
16757;SDS011;8497;51.346;12.396;2024-03-23T11:11:50;3.17;;;2.97;;
16757;SDS011;8497;51.346;12.396;2024-03-23T11:14:22;3.27;;;3.07;;
16757;SDS011;8497;51.346;12.396;2024-03-23T11:16:53;3.10;;;2.80;;
16757;SDS011;8497;51.346;12.396;2024-03-23T11:19:35;3.00;;;2.80;;
16757;SDS011;8497;51.346;12.396;2024-03-23T11:22:04;4.50;;;2.60;;
16757;SDS011;8497;51.346;12.396;2024-03-23T11:24:33;2.33;;;2.13;;
16757;SDS011;8497;51.346;12.396;2024-03-23T11:27:00;3.53;;;2.30;;
16757;SDS011;8497;51.346;12.396;2024-03-23T11:29:29;3.50;;;2.40;;
16757;SDS011;8497;51.346;12.396;2024-03-23T11:31:59;2.30;;;2.10;;
16757;SDS011;8497;51.346;12.396;2024-03-23T11:34:28;2.77;;;2.30;;
16757;SDS011;8497;51.346;12.396;2024-03-23T11:37:04;3.00;;;2.20;;
16757;SDS011;8497;51.346;12.396;2024-03-23T11:39:33;5.60;;;2.40;;
16757;SDS011;8497;51.346;12.396;2024-03-23T11:42:02;3.23;;;1.83;;
16757;SDS011;8497;51.346;12.396;2024-03-23T11:44:30;3.70;;;1.80;;
16757;SDS011;8497;51.346;12.396;2024-03-23T11:47:07;2.80;;;2.60;;
16757;SDS011;8497;51.346;12.396;2024-03-23T11:49:34;2.17;;;1.60;;
16757;SDS011;8497;51.346;12.396;2024-03-23T11:52:06;2.97;;;1.80;;
16757;SDS011;8497;51.346;12.396;2024-03-23T11:54:34;5.70;;;2.13;;
16757;SDS011;8497;51.346;12.396;2024-03-23T11:57:04;3.73;;;2.20;;
16757;SDS011;8497;51.346;12.396;2024-03-23T11:59:34;5.23;;;2.17;;
16757;SDS011;8497;51.346;12.396;2024-03-23T12:02:06;6.30;;;2.13;;
16757;SDS011;8497;51.346;12.396;2024-03-23T12:04:35;3.90;;;1.90;;
16757;SDS011;8497;51.346;12.396;2024-03-23T12:07:10;7.40;;;2.43;;
16757;SDS011;8497;51.346;12.396;2024-03-23T12:09:42;4.13;;;1.97;;
16757;SDS011;8497;51.346;12.396;2024-03-23T12:12:13;7.63;;;2.00;;
16757;SDS011;8497;51.346;12.396;2024-03-23T12:14:41;5.13;;;2.20;;
16757;SDS011;8497;51.346;12.396;2024-03-23T12:17:10;4.43;;;2.00;;
16757;SDS011;8497;51.346;12.396;2024-03-23T12:19:38;5.20;;;2.10;;
16757;SDS011;8497;51.346;12.396;2024-03-23T12:22:07;4.50;;;2.17;;
16757;SDS011;8497;51.346;12.396;2024-03-23T12:24:34;3.20;;;1.93;;
16757;SDS011;8497;51.346;12.396;2024-03-23T12:27:03;3.30;;;1.67;;
16757;SDS011;8497;51.346;12.396;2024-03-23T12:29:31;4.30;;;1.47;;
16757;SDS011;8497;51.346;12.396;2024-03-23T12:32:01;6.57;;;1.70;;
16757;SDS011;8497;51.346;12.396;2024-03-23T12:34:28;3.67;;;1.70;;
16757;SDS011;8497;51.346;12.396;2024-03-23T12:36:56;4.57;;;1.70;;
16757;SDS011;8497;51.346;12.396;2024-03-23T12:39:23;4.00;;;2.23;;
16757;SDS011;8497;51.346;12.396;2024-03-23T12:42:15;1.67;;;1.57;;
16757;SDS011;8497;51.346;12.396;2024-03-23T12:45:02;4.13;;;1.80;;
16757;SDS011;8497;51.346;12.396;2024-03-23T12:47:30;2.03;;;1.83;;
16757;SDS011;8497;51.346;12.396;2024-03-23T12:49:59;4.03;;;2.20;;
16757;SDS011;8497;51.346;12.396;2024-03-23T12:52:28;3.80;;;2.00;;
16757;SDS011;8497;51.346;12.396;2024-03-23T12:54:58;2.50;;;2.30;;
16757;SDS011;8497;51.346;12.396;2024-03-23T12:57:26;4.57;;;2.07;;
16757;SDS011;8497;51.346;12.396;2024-03-23T12:59:55;5.07;;;1.93;;
16757;SDS011;8497;51.346;12.396;2024-03-23T13:02:21;4.20;;;2.10;;
16757;SDS011;8497;51.346;12.396;2024-03-23T13:04:49;3.10;;;2.40;;
16757;SDS011;8497;51.346;12.396;2024-03-23T13:07:17;4.37;;;2.70;;
16757;SDS011;8497;51.346;12.396;2024-03-23T13:09:46;4.80;;;2.67;;
16757;SDS011;8497;51.346;12.396;2024-03-23T13:12:15;7.40;;;2.80;;
16757;SDS011;8497;51.346;12.396;2024-03-23T13:14:45;4.50;;;3.10;;
16757;SDS011;8497;51.346;12.396;2024-03-23T13:17:13;3.30;;;2.47;;
16757;SDS011;8497;51.346;12.396;2024-03-23T13:19:41;8.40;;;4.00;;
16757;SDS011;8497;51.346;12.396;2024-03-23T13:22:08;4.50;;;3.13;;
16757;SDS011;8497;51.346;12.396;2024-03-23T13:24:37;5.20;;;3.10;;
16757;SDS011;8497;51.346;12.396;2024-03-23T13:27:05;10.33;;;2.93;;
16757;SDS011;8497;51.346;12.396;2024-03-23T13:29:39;6.27;;;3.27;;
16757;SDS011;8497;51.346;12.396;2024-03-23T13:32:07;7.03;;;3.23;;
16757;SDS011;8497;51.346;12.396;2024-03-23T13:34:35;6.80;;;2.90;;
16757;SDS011;8497;51.346;12.396;2024-03-23T13:37:02;6.80;;;3.03;;
16757;SDS011;8497;51.346;12.396;2024-03-23T13:39:30;4.43;;;2.77;;
16757;SDS011;8497;51.346;12.396;2024-03-23T13:41:56;7.00;;;3.30;;
16757;SDS011;8497;51.346;12.396;2024-03-23T13:44:24;5.13;;;2.87;;
16757;SDS011;8497;51.346;12.396;2024-03-23T13:46:54;4.70;;;2.57;;
16757;SDS011;8497;51.346;12.396;2024-03-23T13:49:27;5.70;;;2.70;;
16757;SDS011;8497;51.346;12.396;2024-03-23T13:51:55;5.90;;;3.10;;
16757;SDS011;8497;51.346;12.396;2024-03-23T13:54:24;6.67;;;3.30;;
16757;SDS011;8497;51.346;12.396;2024-03-23T13:56:51;6.93;;;3.50;;
16757;SDS011;8497;51.346;12.396;2024-03-23T13:59:21;8.17;;;3.73;;
16757;SDS011;8497;51.346;12.396;2024-03-23T14:01:48;10.33;;;4.60;;
16757;SDS011;8497;51.346;12.396;2024-03-23T14:04:16;5.57;;;4.10;;
16757;SDS011;8497;51.346;12.396;2024-03-23T14:06:47;6.90;;;4.10;;
16757;SDS011;8497;51.346;12.396;2024-03-23T14:09:14;5.90;;;3.93;;
16757;SDS011;8497;51.346;12.396;2024-03-23T14:11:46;6.30;;;4.07;;
16757;SDS011;8497;51.346;12.396;2024-03-23T14:14:14;6.53;;;3.50;;
16757;SDS011;8497;51.346;12.396;2024-03-23T14:16:42;5.23;;;3.57;;
16757;SDS011;8497;51.346;12.396;2024-03-23T14:19:11;5.70;;;3.30;;
16757;SDS011;8497;51.346;12.396;2024-03-23T14:22:11;5.27;;;3.63;;
16757;SDS011;8497;51.346;12.396;2024-03-23T14:24:55;5.73;;;4.17;;
16757;SDS011;8497;51.346;12.396;2024-03-23T14:27:26;6.83;;;4.13;;
16757;SDS011;8497;51.346;12.396;2024-03-23T14:29:53;6.57;;;4.60;;
16757;SDS011;8497;51.346;12.396;2024-03-23T14:32:25;9.70;;;4.77;;
16757;SDS011;8497;51.346;12.396;2024-03-23T14:34:54;6.57;;;3.33;;
16757;SDS011;8497;51.346;12.396;2024-03-23T14:37:45;2.60;;;2.40;;
16757;SDS011;8497;51.346;12.396;2024-03-23T14:40:14;3.20;;;2.50;;
16757;SDS011;8497;51.346;12.396;2024-03-23T14:42:41;4.20;;;2.77;;
16757;SDS011;8497;51.346;12.396;2024-03-23T14:45:08;4.73;;;2.60;;
16757;SDS011;8497;51.346;12.396;2024-03-23T14:47:37;4.70;;;2.53;;
16757;SDS011;8497;51.346;12.396;2024-03-23T14:50:05;4.93;;;2.57;;
16757;SDS011;8497;51.346;12.396;2024-03-23T14:52:34;3.27;;;2.77;;
16757;SDS011;8497;51.346;12.396;2024-03-23T14:55:05;3.27;;;2.57;;
16757;SDS011;8497;51.346;12.396;2024-03-23T14:57:34;4.07;;;2.60;;
16757;SDS011;8497;51.346;12.396;2024-03-23T15:00:01;4.97;;;3.17;;
16757;SDS011;8497;51.346;12.396;2024-03-23T15:02:30;6.60;;;3.00;;
16757;SDS011;8497;51.346;12.396;2024-03-23T15:04:57;5.60;;;3.10;;
16757;SDS011;8497;51.346;12.396;2024-03-23T15:07:25;3.43;;;2.83;;
16757;SDS011;8497;51.346;12.396;2024-03-23T15:09:53;3.20;;;2.90;;
16757;SDS011;8497;51.346;12.396;2024-03-23T15:12:22;5.17;;;2.93;;
16757;SDS011;8497;51.346;12.396;2024-03-23T15:14:49;4.10;;;2.77;;
16757;SDS011;8497;51.346;12.396;2024-03-23T15:17:16;2.70;;;2.47;;
16757;SDS011;8497;51.346;12.396;2024-03-23T15:19:44;4.30;;;2.50;;
16757;SDS011;8497;51.346;12.396;2024-03-23T15:22:11;2.90;;;2.70;;
16757;SDS011;8497;51.346;12.396;2024-03-23T15:24:38;3.57;;;2.37;;
16757;SDS011;8497;51.346;12.396;2024-03-23T15:27:05;3.43;;;2.30;;
16757;SDS011;8497;51.346;12.396;2024-03-23T15:29:35;2.60;;;2.40;;
16757;SDS011;8497;51.346;12.396;2024-03-23T15:32:03;3.10;;;2.60;;
16757;SDS011;8497;51.346;12.396;2024-03-23T15:34:31;2.67;;;2.47;;
16757;SDS011;8497;51.346;12.396;2024-03-23T15:36:58;4.30;;;2.13;;
16757;SDS011;8497;51.346;12.396;2024-03-23T15:39:25;2.80;;;2.50;;
16757;SDS011;8497;51.346;12.396;2024-03-23T15:41:52;4.03;;;2.20;;
16757;SDS011;8497;51.346;12.396;2024-03-23T15:44:19;3.53;;;2.40;;